sensor_id;sensor_type;location;lat;lon;timestamp;temperature;humidity
9915;DHT22;4996;48.746;9.174;2023-03-31T00:01:34;12.60;99.90
9915;DHT22;4996;48.746;9.174;2023-03-31T00:04:00;12.50;99.90
9915;DHT22;4996;48.746;9.174;2023-03-31T00:06:30;12.60;99.90
9915;DHT22;4996;48.746;9.174;2023-03-31T00:08:56;12.60;99.90
9915;DHT22;4996;48.746;9.174;2023-03-31T00:11:26;12.60;99.90
9915;DHT22;4996;48.746;9.174;2023-03-31T00:13:52;12.60;99.90
9915;DHT22;4996;48.746;9.174;2023-03-31T00:16:17;12.70;99.90
9915;DHT22;4996;48.746;9.174;2023-03-31T00:18:43;12.70;99.90
9915;DHT22;4996;48.746;9.174;2023-03-31T00:21:16;12.70;99.90
9915;DHT22;4996;48.746;9.174;2023-03-31T00:23:55;12.70;99.90
9915;DHT22;4996;48.746;9.174;2023-03-31T00:26:21;12.70;99.90
9915;DHT22;4996;48.746;9.174;2023-03-31T00:28:48;12.70;99.90
9915;DHT22;4996;48.746;9.174;2023-03-31T00:31:14;12.70;99.90
9915;DHT22;4996;48.746;9.174;2023-03-31T00:33:39;12.60;99.90
9915;DHT22;4996;48.746;9.174;2023-03-31T00:36:05;12.70;99.90
9915;DHT22;4996;48.746;9.174;2023-03-31T00:38:32;12.60;99.90
9915;DHT22;4996;48.746;9.174;2023-03-31T00:40:59;12.60;99.90
9915;DHT22;4996;48.746;9.174;2023-03-31T00:43:32;12.60;99.90
9915;DHT22;4996;48.746;9.174;2023-03-31T00:46:15;12.60;99.90
9915;DHT22;4996;48.746;9.174;2023-03-31T00:48:52;12.60;99.90
9915;DHT22;4996;48.746;9.174;2023-03-31T00:51:19;12.70;99.90
9915;DHT22;4996;48.746;9.174;2023-03-31T00:53:50;12.50;99.90
9915;DHT22;4996;48.746;9.174;2023-03-31T00:56:20;12.60;99.90
9915;DHT22;4996;48.746;9.174;2023-03-31T00:58:45;12.60;99.90
9915;DHT22;4996;48.746;9.174;2023-03-31T01:01:15;12.50;99.90
9915;DHT22;4996;48.746;9.174;2023-03-31T01:03:44;12.60;99.90
9915;DHT22;4996;48.746;9.174;2023-03-31T01:06:13;12.60;99.90
9915;DHT22;4996;48.746;9.174;2023-03-31T01:08:40;12.70;99.90
9915;DHT22;4996;48.746;9.174;2023-03-31T01:11:09;12.70;99.90
9915;DHT22;4996;48.746;9.174;2023-03-31T01:13:39;12.70;99.90
9915;DHT22;4996;48.746;9.174;2023-03-31T01:16:06;12.70;99.90
9915;DHT22;4996;48.746;9.174;2023-03-31T01:18:31;12.70;99.90
9915;DHT22;4996;48.746;9.174;2023-03-31T01:35:18;12.70;99.90
9915;DHT22;4996;48.746;9.174;2023-03-31T01:38:15;12.70;99.90
9915;DHT22;4996;48.746;9.174;2023-03-31T01:43:25;12.80;99.90
9915;DHT22;4996;48.746;9.174;2023-03-31T01:46:00;12.80;99.90
9915;DHT22;4996;48.746;9.174;2023-03-31T01:51:10;12.50;99.90
9915;DHT22;4996;48.746;9.174;2023-03-31T01:53:55;12.50;99.90
9915;DHT22;4996;48.746;9.174;2023-03-31T01:56:40;12.60;99.90
9915;DHT22;4996;48.746;9.174;2023-03-31T01:59:34;12.60;99.90
9915;DHT22;4996;48.746;9.174;2023-03-31T02:02:03;12.70;99.90
9915;DHT22;4996;48.746;9.174;2023-03-31T02:04:38;12.70;99.90
9915;DHT22;4996;48.746;9.174;2023-03-31T02:07:14;12.60;99.90
9915;DHT22;4996;48.746;9.174;2023-03-31T02:09:45;12.60;99.90
9915;DHT22;4996;48.746;9.174;2023-03-31T02:12:13;12.70;99.90
9915;DHT22;4996;48.746;9.174;2023-03-31T02:14:43;12.70;99.90
9915;DHT22;4996;48.746;9.174;2023-03-31T02:17:15;12.50;99.90
9915;DHT22;4996;48.746;9.174;2023-03-31T02:19:45;12.60;99.90
9915;DHT22;4996;48.746;9.174;2023-03-31T02:22:12;12.60;99.90
9915;DHT22;4996;48.746;9.174;2023-03-31T02:24:40;12.60;99.90
9915;DHT22;4996;48.746;9.174;2023-03-31T02:27:22;12.60;99.90
9915;DHT22;4996;48.746;9.174;2023-03-31T02:29:49;12.50;99.90
9915;DHT22;4996;48.746;9.174;2023-03-31T02:32:30;12.40;99.90
9915;DHT22;4996;48.746;9.174;2023-03-31T02:34:57;12.40;99.90
9915;DHT22;4996;48.746;9.174;2023-03-31T02:37:23;12.50;99.90
9915;DHT22;4996;48.746;9.174;2023-03-31T02:39:51;12.40;99.90
9915;DHT22;4996;48.746;9.174;2023-03-31T02:42:18;12.40;99.90
9915;DHT22;4996;48.746;9.174;2023-03-31T02:44:44;12.30;99.90
9915;DHT22;4996;48.746;9.174;2023-03-31T02:47:14;12.20;99.90
9915;DHT22;4996;48.746;9.174;2023-03-31T02:49:48;12.20;99.90
9915;DHT22;4996;48.746;9.174;2023-03-31T03:00:17;12.30;99.90
9915;DHT22;4996;48.746;9.174;2023-03-31T03:11:30;12.10;99.90
9915;DHT22;4996;48.746;9.174;2023-03-31T03:16:40;12.10;99.90
9915;DHT22;4996;48.746;9.174;2023-03-31T03:19:07;12.10;99.90
9915;DHT22;4996;48.746;9.174;2023-03-31T03:21:34;12.00;99.90
9915;DHT22;4996;48.746;9.174;2023-03-31T03:23:59;12.00;99.90
9915;DHT22;4996;48.746;9.174;2023-03-31T03:26:26;11.90;99.90
9915;DHT22;4996;48.746;9.174;2023-03-31T03:28:53;11.90;99.90
9915;DHT22;4996;48.746;9.174;2023-03-31T03:31:19;11.90;99.90
9915;DHT22;4996;48.746;9.174;2023-03-31T03:33:51;11.80;99.90
9915;DHT22;4996;48.746;9.174;2023-03-31T03:36:17;11.70;99.90
9915;DHT22;4996;48.746;9.174;2023-03-31T03:38:42;11.70;99.90
9915;DHT22;4996;48.746;9.174;2023-03-31T03:41:08;11.60;99.90
9915;DHT22;4996;48.746;9.174;2023-03-31T03:43:34;11.50;99.90
9915;DHT22;4996;48.746;9.174;2023-03-31T03:46:00;11.40;99.90
9915;DHT22;4996;48.746;9.174;2023-03-31T03:48:25;11.30;99.90
9915;DHT22;4996;48.746;9.174;2023-03-31T03:50:51;11.30;99.90
9915;DHT22;4996;48.746;9.174;2023-03-31T03:53:18;11.20;99.90
9915;DHT22;4996;48.746;9.174;2023-03-31T03:55:44;11.20;99.90
9915;DHT22;4996;48.746;9.174;2023-03-31T03:58:10;11.10;99.90
9915;DHT22;4996;48.746;9.174;2023-03-31T04:00:36;10.90;99.90
9915;DHT22;4996;48.746;9.174;2023-03-31T04:03:01;10.80;99.90
9915;DHT22;4996;48.746;9.174;2023-03-31T04:05:27;10.70;99.90
9915;DHT22;4996;48.746;9.174;2023-03-31T04:07:52;10.70;99.90
9915;DHT22;4996;48.746;9.174;2023-03-31T04:10:18;10.80;99.90
9915;DHT22;4996;48.746;9.174;2023-03-31T04:12:43;10.60;99.90
9915;DHT22;4996;48.746;9.174;2023-03-31T04:15:09;10.60;99.90
9915;DHT22;4996;48.746;9.174;2023-03-31T04:17:34;10.40;99.90
9915;DHT22;4996;48.746;9.174;2023-03-31T04:20:06;10.30;99.90
9915;DHT22;4996;48.746;9.174;2023-03-31T04:22:34;10.40;99.90
9915;DHT22;4996;48.746;9.174;2023-03-31T04:25:06;10.40;99.90
9915;DHT22;4996;48.746;9.174;2023-03-31T04:27:40;10.40;99.90
9915;DHT22;4996;48.746;9.174;2023-03-31T04:30:12;10.40;99.90
9915;DHT22;4996;48.746;9.174;2023-03-31T04:32:51;10.30;99.90
9915;DHT22;4996;48.746;9.174;2023-03-31T04:35:19;10.50;99.90
9915;DHT22;4996;48.746;9.174;2023-03-31T04:37:47;10.50;99.90
9915;DHT22;4996;48.746;9.174;2023-03-31T04:40:12;10.70;99.90
9915;DHT22;4996;48.746;9.174;2023-03-31T04:42:38;10.70;99.90
9915;DHT22;4996;48.746;9.174;2023-03-31T04:45:04;10.70;99.90
9915;DHT22;4996;48.746;9.174;2023-03-31T04:47:30;10.80;99.90
9915;DHT22;4996;48.746;9.174;2023-03-31T04:49:55;10.70;99.90
9915;DHT22;4996;48.746;9.174;2023-03-31T04:52:21;10.60;99.90
9915;DHT22;4996;48.746;9.174;2023-03-31T04:54:46;10.60;99.90
9915;DHT22;4996;48.746;9.174;2023-03-31T04:57:12;10.70;99.90
9915;DHT22;4996;48.746;9.174;2023-03-31T04:59:37;10.70;99.90
9915;DHT22;4996;48.746;9.174;2023-03-31T05:02:03;10.80;99.90
9915;DHT22;4996;48.746;9.174;2023-03-31T05:04:28;10.80;99.90
9915;DHT22;4996;48.746;9.174;2023-03-31T05:06:54;10.80;99.90
9915;DHT22;4996;48.746;9.174;2023-03-31T05:09:20;10.80;99.90
9915;DHT22;4996;48.746;9.174;2023-03-31T05:11:46;10.80;99.90
9915;DHT22;4996;48.746;9.174;2023-03-31T05:14:11;10.70;99.90
9915;DHT22;4996;48.746;9.174;2023-03-31T05:16:37;10.90;99.90
9915;DHT22;4996;48.746;9.174;2023-03-31T05:19:03;10.90;99.90
9915;DHT22;4996;48.746;9.174;2023-03-31T05:21:28;10.90;99.90
9915;DHT22;4996;48.746;9.174;2023-03-31T05:23:56;10.90;99.90
9915;DHT22;4996;48.746;9.174;2023-03-31T05:26:22;10.90;99.90
9915;DHT22;4996;48.746;9.174;2023-03-31T05:28:50;10.90;99.90
9915;DHT22;4996;48.746;9.174;2023-03-31T05:31:16;10.90;99.90
9915;DHT22;4996;48.746;9.174;2023-03-31T05:33:41;11.00;99.90
9915;DHT22;4996;48.746;9.174;2023-03-31T05:36:09;11.00;99.90
9915;DHT22;4996;48.746;9.174;2023-03-31T05:38:35;11.00;99.90
9915;DHT22;4996;48.746;9.174;2023-03-31T05:41:00;11.00;99.90
9915;DHT22;4996;48.746;9.174;2023-03-31T05:43:26;11.00;99.90
9915;DHT22;4996;48.746;9.174;2023-03-31T05:45:51;11.00;99.90
9915;DHT22;4996;48.746;9.174;2023-03-31T05:48:17;11.00;99.90
9915;DHT22;4996;48.746;9.174;2023-03-31T05:50:42;11.00;99.90
9915;DHT22;4996;48.746;9.174;2023-03-31T05:53:08;11.00;99.90
9915;DHT22;4996;48.746;9.174;2023-03-31T05:55:37;11.00;99.90
9915;DHT22;4996;48.746;9.174;2023-03-31T05:58:02;11.00;99.90
9915;DHT22;4996;48.746;9.174;2023-03-31T06:00:28;10.90;99.90
9915;DHT22;4996;48.746;9.174;2023-03-31T06:02:53;10.90;99.90
9915;DHT22;4996;48.746;9.174;2023-03-31T06:05:19;10.90;99.90
9915;DHT22;4996;48.746;9.174;2023-03-31T06:07:44;10.90;99.90
9915;DHT22;4996;48.746;9.174;2023-03-31T06:10:10;10.90;99.90
9915;DHT22;4996;48.746;9.174;2023-03-31T06:12:36;10.80;99.90
9915;DHT22;4996;48.746;9.174;2023-03-31T06:15:02;10.70;99.90
9915;DHT22;4996;48.746;9.174;2023-03-31T06:17:28;10.70;99.90
9915;DHT22;4996;48.746;9.174;2023-03-31T06:19:53;10.70;99.90
9915;DHT22;4996;48.746;9.174;2023-03-31T06:22:19;10.80;99.90
9915;DHT22;4996;48.746;9.174;2023-03-31T06:24:45;10.80;99.90
9915;DHT22;4996;48.746;9.174;2023-03-31T06:27:10;10.80;99.90
9915;DHT22;4996;48.746;9.174;2023-03-31T06:29:36;10.80;99.90
9915;DHT22;4996;48.746;9.174;2023-03-31T06:32:01;10.90;99.90
9915;DHT22;4996;48.746;9.174;2023-03-31T06:34:29;10.90;99.90
9915;DHT22;4996;48.746;9.174;2023-03-31T06:36:54;11.00;99.90
9915;DHT22;4996;48.746;9.174;2023-03-31T06:39:20;11.00;99.90
9915;DHT22;4996;48.746;9.174;2023-03-31T06:41:46;11.00;99.90
9915;DHT22;4996;48.746;9.174;2023-03-31T06:44:12;10.90;99.90
9915;DHT22;4996;48.746;9.174;2023-03-31T06:46:41;10.90;99.90
9915;DHT22;4996;48.746;9.174;2023-03-31T06:49:06;10.80;99.90
9915;DHT22;4996;48.746;9.174;2023-03-31T06:51:32;10.80;99.90
9915;DHT22;4996;48.746;9.174;2023-03-31T06:53:57;10.70;99.90
9915;DHT22;4996;48.746;9.174;2023-03-31T06:56:23;10.50;99.90
9915;DHT22;4996;48.746;9.174;2023-03-31T06:58:48;10.60;99.90
9915;DHT22;4996;48.746;9.174;2023-03-31T07:01:14;10.60;99.90
9915;DHT22;4996;48.746;9.174;2023-03-31T07:03:39;10.50;99.90
9915;DHT22;4996;48.746;9.174;2023-03-31T07:06:05;10.50;99.90
9915;DHT22;4996;48.746;9.174;2023-03-31T07:08:31;10.50;99.90
9915;DHT22;4996;48.746;9.174;2023-03-31T07:10:59;10.50;99.90
9915;DHT22;4996;48.746;9.174;2023-03-31T07:13:25;10.40;99.90
9915;DHT22;4996;48.746;9.174;2023-03-31T07:15:51;10.30;99.90
9915;DHT22;4996;48.746;9.174;2023-03-31T07:18:18;10.30;99.90
9915;DHT22;4996;48.746;9.174;2023-03-31T07:20:47;10.20;99.90
9915;DHT22;4996;48.746;9.174;2023-03-31T07:23:12;10.20;99.90
9915;DHT22;4996;48.746;9.174;2023-03-31T07:25:38;10.10;99.90
9915;DHT22;4996;48.746;9.174;2023-03-31T07:28:04;10.20;99.90
9915;DHT22;4996;48.746;9.174;2023-03-31T07:30:31;10.20;99.90
9915;DHT22;4996;48.746;9.174;2023-03-31T07:32:57;10.30;99.90
9915;DHT22;4996;48.746;9.174;2023-03-31T07:35:23;10.40;99.90
9915;DHT22;4996;48.746;9.174;2023-03-31T07:37:49;10.30;99.90
9915;DHT22;4996;48.746;9.174;2023-03-31T07:40:24;10.30;99.90
9915;DHT22;4996;48.746;9.174;2023-03-31T07:42:50;10.40;99.90
9915;DHT22;4996;48.746;9.174;2023-03-31T07:45:18;10.60;99.90
9915;DHT22;4996;48.746;9.174;2023-03-31T07:47:44;10.70;99.90
9915;DHT22;4996;48.746;9.174;2023-03-31T07:50:11;11.10;99.90
9915;DHT22;4996;48.746;9.174;2023-03-31T07:52:38;11.40;99.90
9915;DHT22;4996;48.746;9.174;2023-03-31T07:55:04;11.30;99.90
9915;DHT22;4996;48.746;9.174;2023-03-31T07:57:30;11.40;99.90
9915;DHT22;4996;48.746;9.174;2023-03-31T07:59:55;11.40;99.90
9915;DHT22;4996;48.746;9.174;2023-03-31T08:02:21;11.50;99.90
9915;DHT22;4996;48.746;9.174;2023-03-31T08:04:46;11.60;99.90
9915;DHT22;4996;48.746;9.174;2023-03-31T08:07:13;11.50;99.90
9915;DHT22;4996;48.746;9.174;2023-03-31T08:09:40;11.40;99.90
9915;DHT22;4996;48.746;9.174;2023-03-31T08:12:07;11.50;99.90
9915;DHT22;4996;48.746;9.174;2023-03-31T08:14:32;11.70;99.90
9915;DHT22;4996;48.746;9.174;2023-03-31T08:16:58;12.10;99.90
9915;DHT22;4996;48.746;9.174;2023-03-31T08:19:25;12.10;99.90
9915;DHT22;4996;48.746;9.174;2023-03-31T08:21:50;12.40;99.90
9915;DHT22;4996;48.746;9.174;2023-03-31T08:24:16;12.50;99.90
9915;DHT22;4996;48.746;9.174;2023-03-31T08:26:42;12.60;99.90
9915;DHT22;4996;48.746;9.174;2023-03-31T08:29:07;12.60;99.90
9915;DHT22;4996;48.746;9.174;2023-03-31T08:31:33;12.90;99.90
9915;DHT22;4996;48.746;9.174;2023-03-31T08:33:59;13.20;99.90
9915;DHT22;4996;48.746;9.174;2023-03-31T08:36:25;13.70;99.90
9915;DHT22;4996;48.746;9.174;2023-03-31T08:38:51;13.70;99.90
9915;DHT22;4996;48.746;9.174;2023-03-31T08:44:06;14.10;99.90
9915;DHT22;4996;48.746;9.174;2023-03-31T08:46:33;14.30;99.90
9915;DHT22;4996;48.746;9.174;2023-03-31T08:49:00;14.40;99.90
9915;DHT22;4996;48.746;9.174;2023-03-31T08:51:30;14.50;99.90
9915;DHT22;4996;48.746;9.174;2023-03-31T08:56:34;15.00;99.90
9915;DHT22;4996;48.746;9.174;2023-03-31T08:59:03;15.20;99.90
9915;DHT22;4996;48.746;9.174;2023-03-31T09:01:48;15.40;99.90
9915;DHT22;4996;48.746;9.174;2023-03-31T09:06:57;15.80;99.90
9915;DHT22;4996;48.746;9.174;2023-03-31T09:12:47;15.60;99.90
9915;DHT22;4996;48.746;9.174;2023-03-31T09:15:43;15.60;99.90
9915;DHT22;4996;48.746;9.174;2023-03-31T09:18:30;15.80;99.90
9915;DHT22;4996;48.746;9.174;2023-03-31T09:26:39;15.80;99.90
9915;DHT22;4996;48.746;9.174;2023-03-31T09:29:12;15.70;99.90
9915;DHT22;4996;48.746;9.174;2023-03-31T09:31:42;15.80;99.90
9915;DHT22;4996;48.746;9.174;2023-03-31T09:34:13;15.60;99.90
9915;DHT22;4996;48.746;9.174;2023-03-31T09:36:40;15.30;99.90
9915;DHT22;4996;48.746;9.174;2023-03-31T09:39:11;14.90;99.90
9915;DHT22;4996;48.746;9.174;2023-03-31T09:41:38;15.00;99.90
9915;DHT22;4996;48.746;9.174;2023-03-31T09:44:27;15.10;99.90
9915;DHT22;4996;48.746;9.174;2023-03-31T09:46:57;15.10;99.90
9915;DHT22;4996;48.746;9.174;2023-03-31T09:49:27;15.10;99.90
9915;DHT22;4996;48.746;9.174;2023-03-31T09:52:11;15.20;99.90
9915;DHT22;4996;48.746;9.174;2023-03-31T09:54:45;15.10;99.90
9915;DHT22;4996;48.746;9.174;2023-03-31T09:57:14;15.20;99.90
9915;DHT22;4996;48.746;9.174;2023-03-31T09:59:40;15.40;99.90
9915;DHT22;4996;48.746;9.174;2023-03-31T10:02:21;15.80;99.90
9915;DHT22;4996;48.746;9.174;2023-03-31T10:04:49;16.00;99.90
9915;DHT22;4996;48.746;9.174;2023-03-31T10:07:20;15.70;99.90
9915;DHT22;4996;48.746;9.174;2023-03-31T10:09:47;15.70;99.90
9915;DHT22;4996;48.746;9.174;2023-03-31T10:12:51;15.80;99.90
9915;DHT22;4996;48.746;9.174;2023-03-31T10:15:21;15.80;99.90
9915;DHT22;4996;48.746;9.174;2023-03-31T10:17:49;15.70;99.90
9915;DHT22;4996;48.746;9.174;2023-03-31T10:20:26;15.60;99.90
9915;DHT22;4996;48.746;9.174;2023-03-31T10:22:54;15.60;99.90
9915;DHT22;4996;48.746;9.174;2023-03-31T10:25:23;15.60;99.90
9915;DHT22;4996;48.746;9.174;2023-03-31T10:27:54;15.50;99.90
9915;DHT22;4996;48.746;9.174;2023-03-31T10:30:23;15.70;99.90
9915;DHT22;4996;48.746;9.174;2023-03-31T10:32:49;15.80;99.90
9915;DHT22;4996;48.746;9.174;2023-03-31T10:35:25;16.10;99.90
9915;DHT22;4996;48.746;9.174;2023-03-31T10:37:55;16.10;99.90
9915;DHT22;4996;48.746;9.174;2023-03-31T10:40:27;16.30;99.90
9915;DHT22;4996;48.746;9.174;2023-03-31T10:45:37;16.20;99.90
9915;DHT22;4996;48.746;9.174;2023-03-31T10:48:03;16.40;99.90
9915;DHT22;4996;48.746;9.174;2023-03-31T10:50:33;16.50;99.90
9915;DHT22;4996;48.746;9.174;2023-03-31T10:53:11;16.40;99.90
9915;DHT22;4996;48.746;9.174;2023-03-31T11:04:41;16.70;99.90
9915;DHT22;4996;48.746;9.174;2023-03-31T11:10:33;16.70;99.90
9915;DHT22;4996;48.746;9.174;2023-03-31T11:13:26;16.80;99.90
9915;DHT22;4996;48.746;9.174;2023-03-31T11:26:56;13.70;99.90
9915;DHT22;4996;48.746;9.174;2023-03-31T11:38:08;10.40;99.90
9915;DHT22;4996;48.746;9.174;2023-03-31T11:45:51;9.80;99.90
9915;DHT22;4996;48.746;9.174;2023-03-31T11:50:56;9.50;99.90
9915;DHT22;4996;48.746;9.174;2023-03-31T11:53:29;9.60;99.90
9915;DHT22;4996;48.746;9.174;2023-03-31T11:55:57;9.90;99.90
9915;DHT22;4996;48.746;9.174;2023-03-31T11:58:44;9.90;99.90
9915;DHT22;4996;48.746;9.174;2023-03-31T12:06:51;11.60;99.90
9915;DHT22;4996;48.746;9.174;2023-03-31T12:09:33;12.50;99.90
9915;DHT22;4996;48.746;9.174;2023-03-31T12:12:03;13.90;99.90
9915;DHT22;4996;48.746;9.174;2023-03-31T12:14:34;14.50;99.90
9915;DHT22;4996;48.746;9.174;2023-03-31T12:17:10;15.20;99.90
9915;DHT22;4996;48.746;9.174;2023-03-31T12:22:25;14.80;99.90
9915;DHT22;4996;48.746;9.174;2023-03-31T12:24:52;14.20;99.90
9915;DHT22;4996;48.746;9.174;2023-03-31T12:27:37;14.20;99.90
9915;DHT22;4996;48.746;9.174;2023-03-31T12:30:30;14.20;99.90
9915;DHT22;4996;48.746;9.174;2023-03-31T12:33:04;15.20;99.90
9915;DHT22;4996;48.746;9.174;2023-03-31T12:35:58;16.30;99.90
9915;DHT22;4996;48.746;9.174;2023-03-31T12:41:08;16.90;99.90
9915;DHT22;4996;48.746;9.174;2023-03-31T12:52:14;17.30;99.90
9915;DHT22;4996;48.746;9.174;2023-03-31T12:55:16;17.10;99.90
9915;DHT22;4996;48.746;9.174;2023-03-31T12:57:45;17.00;99.90
9915;DHT22;4996;48.746;9.174;2023-03-31T13:00:25;17.20;99.90
9915;DHT22;4996;48.746;9.174;2023-03-31T13:05:54;17.00;99.90
9915;DHT22;4996;48.746;9.174;2023-03-31T13:08:50;16.60;99.90
9915;DHT22;4996;48.746;9.174;2023-03-31T13:11:17;16.00;99.90
9915;DHT22;4996;48.746;9.174;2023-03-31T13:16:45;15.30;99.90
9915;DHT22;4996;48.746;9.174;2023-03-31T13:19:25;14.60;99.90
9915;DHT22;4996;48.746;9.174;2023-03-31T13:21:56;14.30;99.90
9915;DHT22;4996;48.746;9.174;2023-03-31T13:24:23;14.20;99.90
9915;DHT22;4996;48.746;9.174;2023-03-31T13:26:50;14.10;99.90
9915;DHT22;4996;48.746;9.174;2023-03-31T13:29:20;13.30;99.90
9915;DHT22;4996;48.746;9.174;2023-03-31T13:34:43;12.30;99.90
9915;DHT22;4996;48.746;9.174;2023-03-31T13:52:01;11.00;99.90
9915;DHT22;4996;48.746;9.174;2023-03-31T14:02:50;10.10;99.90
9915;DHT22;4996;48.746;9.174;2023-03-31T14:05:27;10.10;99.90
9915;DHT22;4996;48.746;9.174;2023-03-31T14:08:10;10.10;99.90
9915;DHT22;4996;48.746;9.174;2023-03-31T14:10:38;10.10;99.90
9915;DHT22;4996;48.746;9.174;2023-03-31T14:13:11;10.10;99.90
9915;DHT22;4996;48.746;9.174;2023-03-31T14:15:57;10.30;99.90
9915;DHT22;4996;48.746;9.174;2023-03-31T14:18:32;10.60;99.90
9915;DHT22;4996;48.746;9.174;2023-03-31T14:21:30;10.90;99.90
9915;DHT22;4996;48.746;9.174;2023-03-31T14:29:39;11.20;99.90
9915;DHT22;4996;48.746;9.174;2023-03-31T14:37:18;11.50;99.90
9915;DHT22;4996;48.746;9.174;2023-03-31T14:39:47;11.60;99.90
9915;DHT22;4996;48.746;9.174;2023-03-31T14:45:22;12.00;99.90
9915;DHT22;4996;48.746;9.174;2023-03-31T14:47:53;12.40;99.90
9915;DHT22;4996;48.746;9.174;2023-03-31T14:50:19;12.60;99.90
9915;DHT22;4996;48.746;9.174;2023-03-31T14:52:47;12.50;99.90
9915;DHT22;4996;48.746;9.174;2023-03-31T14:55:14;12.60;99.90
9915;DHT22;4996;48.746;9.174;2023-03-31T14:57:41;12.60;99.90
9915;DHT22;4996;48.746;9.174;2023-03-31T15:00:15;12.50;99.90
9915;DHT22;4996;48.746;9.174;2023-03-31T15:02:43;12.40;99.90
9915;DHT22;4996;48.746;9.174;2023-03-31T15:05:30;12.10;99.90
9915;DHT22;4996;48.746;9.174;2023-03-31T15:08:01;12.20;99.90
9915;DHT22;4996;48.746;9.174;2023-03-31T15:10:36;12.10;99.90
9915;DHT22;4996;48.746;9.174;2023-03-31T15:13:11;12.10;99.90
9915;DHT22;4996;48.746;9.174;2023-03-31T15:15:40;12.20;99.90
9915;DHT22;4996;48.746;9.174;2023-03-31T15:18:05;12.20;99.90
9915;DHT22;4996;48.746;9.174;2023-03-31T15:20:36;12.30;99.90
9915;DHT22;4996;48.746;9.174;2023-03-31T15:23:16;12.40;99.90
9915;DHT22;4996;48.746;9.174;2023-03-31T15:25:43;12.60;99.90
9915;DHT22;4996;48.746;9.174;2023-03-31T15:28:14;12.50;99.90
9915;DHT22;4996;48.746;9.174;2023-03-31T15:30:41;12.40;99.90
9915;DHT22;4996;48.746;9.174;2023-03-31T15:33:07;12.40;99.90
9915;DHT22;4996;48.746;9.174;2023-03-31T15:35:41;12.60;99.90
9915;DHT22;4996;48.746;9.174;2023-03-31T15:38:10;12.40;99.90
9915;DHT22;4996;48.746;9.174;2023-03-31T15:40:38;12.60;99.90
9915;DHT22;4996;48.746;9.174;2023-03-31T15:43:15;12.80;99.90
9915;DHT22;4996;48.746;9.174;2023-03-31T15:46:00;12.90;99.90
9915;DHT22;4996;48.746;9.174;2023-03-31T15:48:34;12.90;99.90
9915;DHT22;4996;48.746;9.174;2023-03-31T15:51:05;12.90;99.90
9915;DHT22;4996;48.746;9.174;2023-03-31T15:53:37;13.00;99.90
9915;DHT22;4996;48.746;9.174;2023-03-31T15:56:03;12.60;99.90
9915;DHT22;4996;48.746;9.174;2023-03-31T16:01:17;13.00;99.90
9915;DHT22;4996;48.746;9.174;2023-03-31T16:03:43;13.00;99.90
9915;DHT22;4996;48.746;9.174;2023-03-31T16:06:30;13.00;99.90
9915;DHT22;4996;48.746;9.174;2023-03-31T16:09:04;12.90;99.90
9915;DHT22;4996;48.746;9.174;2023-03-31T16:11:49;12.60;99.90
9915;DHT22;4996;48.746;9.174;2023-03-31T16:15:05;12.60;99.90
9915;DHT22;4996;48.746;9.174;2023-03-31T16:17:12;12.70;99.90
9915;DHT22;4996;48.746;9.174;2023-03-31T16:19:44;12.80;99.90
9915;DHT22;4996;48.746;9.174;2023-03-31T16:22:19;12.70;99.90
9915;DHT22;4996;48.746;9.174;2023-03-31T16:24:45;12.90;99.90
9915;DHT22;4996;48.746;9.174;2023-03-31T16:27:11;12.50;99.90
9915;DHT22;4996;48.746;9.174;2023-03-31T16:29:37;12.60;99.90
9915;DHT22;4996;48.746;9.174;2023-03-31T16:32:12;12.60;99.90
9915;DHT22;4996;48.746;9.174;2023-03-31T16:34:55;12.50;99.90
9915;DHT22;4996;48.746;9.174;2023-03-31T16:37:21;12.20;99.90
9915;DHT22;4996;48.746;9.174;2023-03-31T16:39:47;12.10;99.90
9915;DHT22;4996;48.746;9.174;2023-03-31T16:42:12;11.90;99.90
9915;DHT22;4996;48.746;9.174;2023-03-31T16:44:38;11.80;99.90
9915;DHT22;4996;48.746;9.174;2023-03-31T16:47:03;11.50;99.90
9915;DHT22;4996;48.746;9.174;2023-03-31T16:49:29;11.20;99.90
9915;DHT22;4996;48.746;9.174;2023-03-31T16:51:55;11.00;99.90
9915;DHT22;4996;48.746;9.174;2023-03-31T16:54:20;11.00;99.90
9915;DHT22;4996;48.746;9.174;2023-03-31T16:56:46;11.00;99.90
9915;DHT22;4996;48.746;9.174;2023-03-31T16:59:12;11.00;99.90
9915;DHT22;4996;48.746;9.174;2023-03-31T17:01:38;11.10;99.90
9915;DHT22;4996;48.746;9.174;2023-03-31T17:04:04;11.20;99.90
9915;DHT22;4996;48.746;9.174;2023-03-31T17:06:29;11.10;99.90
9915;DHT22;4996;48.746;9.174;2023-03-31T17:08:55;11.00;99.90
9915;DHT22;4996;48.746;9.174;2023-03-31T17:11:21;11.10;99.90
9915;DHT22;4996;48.746;9.174;2023-03-31T17:13:47;11.10;99.90
9915;DHT22;4996;48.746;9.174;2023-03-31T17:16:13;11.10;99.90
9915;DHT22;4996;48.746;9.174;2023-03-31T17:18:38;11.10;99.90
9915;DHT22;4996;48.746;9.174;2023-03-31T17:21:06;10.70;99.90
9915;DHT22;4996;48.746;9.174;2023-03-31T17:23:32;11.00;99.90
9915;DHT22;4996;48.746;9.174;2023-03-31T17:25:58;11.00;99.90
9915;DHT22;4996;48.746;9.174;2023-03-31T17:28:24;10.90;99.90
9915;DHT22;4996;48.746;9.174;2023-03-31T17:30:49;10.80;99.90
9915;DHT22;4996;48.746;9.174;2023-03-31T17:33:15;10.80;99.90
9915;DHT22;4996;48.746;9.174;2023-03-31T17:35:41;10.60;99.90
9915;DHT22;4996;48.746;9.174;2023-03-31T17:38:08;10.70;99.90
9915;DHT22;4996;48.746;9.174;2023-03-31T17:40:35;10.70;99.90
9915;DHT22;4996;48.746;9.174;2023-03-31T17:43:01;10.70;99.90
9915;DHT22;4996;48.746;9.174;2023-03-31T17:45:30;10.70;99.90
9915;DHT22;4996;48.746;9.174;2023-03-31T17:47:59;10.80;99.90
9915;DHT22;4996;48.746;9.174;2023-03-31T17:50:26;10.80;99.90
9915;DHT22;4996;48.746;9.174;2023-03-31T17:52:52;10.70;99.90
9915;DHT22;4996;48.746;9.174;2023-03-31T17:55:18;10.80;99.90
9915;DHT22;4996;48.746;9.174;2023-03-31T17:57:44;10.50;99.90
9915;DHT22;4996;48.746;9.174;2023-03-31T18:00:10;10.50;99.90
9915;DHT22;4996;48.746;9.174;2023-03-31T18:02:40;10.60;99.90
9915;DHT22;4996;48.746;9.174;2023-03-31T18:05:06;10.60;99.90
9915;DHT22;4996;48.746;9.174;2023-03-31T18:07:33;10.40;99.90
9915;DHT22;4996;48.746;9.174;2023-03-31T18:09:59;10.40;99.90
9915;DHT22;4996;48.746;9.174;2023-03-31T18:12:25;10.50;99.90
9915;DHT22;4996;48.746;9.174;2023-03-31T18:14:51;10.40;99.90
9915;DHT22;4996;48.746;9.174;2023-03-31T18:17:16;10.40;99.90
9915;DHT22;4996;48.746;9.174;2023-03-31T18:19:43;10.50;99.90
9915;DHT22;4996;48.746;9.174;2023-03-31T18:22:09;10.60;99.90
9915;DHT22;4996;48.746;9.174;2023-03-31T18:24:35;10.50;99.90
9915;DHT22;4996;48.746;9.174;2023-03-31T18:27:02;10.50;99.90
9915;DHT22;4996;48.746;9.174;2023-03-31T18:29:28;10.40;99.90
9915;DHT22;4996;48.746;9.174;2023-03-31T18:31:54;10.40;99.90
9915;DHT22;4996;48.746;9.174;2023-03-31T18:34:19;10.50;99.90
9915;DHT22;4996;48.746;9.174;2023-03-31T18:36:45;10.40;99.90
9915;DHT22;4996;48.746;9.174;2023-03-31T18:39:11;10.40;99.90
9915;DHT22;4996;48.746;9.174;2023-03-31T18:41:41;10.40;99.90
9915;DHT22;4996;48.746;9.174;2023-03-31T18:44:08;10.30;99.90
9915;DHT22;4996;48.746;9.174;2023-03-31T18:46:34;10.20;99.90
9915;DHT22;4996;48.746;9.174;2023-03-31T18:49:00;10.20;99.90
9915;DHT22;4996;48.746;9.174;2023-03-31T18:51:25;10.30;99.90
9915;DHT22;4996;48.746;9.174;2023-03-31T18:53:50;10.20;99.90
9915;DHT22;4996;48.746;9.174;2023-03-31T18:56:16;10.10;99.90
9915;DHT22;4996;48.746;9.174;2023-03-31T18:58:42;10.00;99.90
9915;DHT22;4996;48.746;9.174;2023-03-31T19:01:08;10.20;99.90
9915;DHT22;4996;48.746;9.174;2023-03-31T19:03:33;10.20;99.90